Time;durP1;ratioP1;P1;durP2;ratioP2;P2;SDS_P1;SDS_P2;PMS_P1;PMS_P2;Temp;Humidity;BMP_temperature;BMP_pressure;BME280_temperature;BME280_humidity;BME280_pressure;Samples;Min_cycle;Max_cycle;Signal;HPM_P1;HPM_P2
2023/10/09 00:01:51;;;;;;;18.25;8.50;;;;;;;;;;4958841;28;98525;-80
2023/10/09 00:04:17;;;;;;;17.15;8.85;;;;;;;;;;4937970;28;106099;-80
2023/10/09 00:06:44;;;;;;;14.45;8.20;;;;;;;;;;4956393;28;99226;-80
2023/10/09 00:09:19;;;;;;;16.77;8.00;;;;;;;;;;4964356;28;98533;-80
2023/10/09 00:11:48;;;;;;;15.88;7.35;;;;;;;;;;4938602;28;98634;-80
2023/10/09 00:14:18;;;;;;;16.58;7.30;;;;;;;;;;4960403;28;99384;-80
2023/10/09 00:16:48;;;;;;;16.15;8.02;;;;;;;;;;4965441;28;99231;-80
2023/10/09 00:19:26;;;;;;;12.85;6.95;;;;;;;;;;4952785;28;98798;-80
2023/10/09 00:21:55;;;;;;;20.88;10.05;;;;;;;;;;4934658;28;100666;-80
2023/10/09 00:24:25;;;;;;;17.55;8.35;;;;;;;;;;4942130;28;99032;-80
2023/10/09 00:26:52;;;;;;;15.20;7.20;;;;;;;;;;4956426;28;100635;-80
2023/10/09 00:29:21;;;;;;;14.73;7.35;;;;;;;;;;4960314;28;98570;-80
2023/10/09 00:32:03;;;;;;;17.73;8.40;;;;;;;;;;4954478;28;99496;-81
2023/10/09 00:34:30;;;;;;;16.13;8.25;;;;;;;;;;4958034;28;104883;-80
2023/10/09 00:37:04;;;;;;;15.52;7.47;;;;;;;;;;4950653;28;98626;-81
2023/10/09 00:39:42;;;;;;;16.83;8.93;;;;;;;;;;4949323;28;98967;-79
2023/10/09 00:42:14;;;;;;;17.23;8.25;;;;;;;;;;4945332;28;99357;-80
2023/10/09 00:44:43;;;;;;;;;;;;;;;;;;4948245;28;98720;-79
2023/10/09 00:47:22;;;;;;;18.98;8.48;;;;;;;;;;4950333;28;114498;-78
2023/10/09 00:49:59;;;;;;;17.42;8.25;;;;;;;;;;4938433;28;98240;-81
2023/10/09 00:52:43;;;;;;;15.07;7.93;;;;;;;;;;4955673;28;102709;-80
2023/10/09 00:55:14;;;;;;;13.95;7.32;;;;;;;;;;4954215;28;101133;-80
2023/10/09 00:57:47;;;;;;;17.42;8.55;;;;;;;;;;4935675;28;99180;-79
2023/10/09 01:00:31;;;;;;;16.92;8.65;;;;;;;;;;4944416;28;99070;-81
2023/10/09 01:05:56;;;;;;;16.05;8.05;;;;;;;;;;4969433;28;98637;-81
2023/10/09 01:08:43;;;;;;;15.57;7.93;;;;;;;;;;4955642;28;104453;-80
2023/10/09 01:11:10;;;;;;;15.18;8.18;;;;;;;;;;4928741;28;98976;-89
2023/10/09 01:16:15;;;;;;;17.25;8.70;;;;;;;;;;4947332;28;98476;-88
2023/10/09 01:18:43;;;;;;;12.32;5.93;;;;;;;;;;4922395;28;98591;-88
2023/10/09 01:21:14;;;;;;;13.65;6.70;;;;;;;;;;4965066;28;100008;-88
2023/10/09 01:23:58;;;;;;;14.23;7.55;;;;;;;;;;4950471;28;100107;-89
2023/10/09 01:26:25;;;;;;;15.98;7.35;;;;;;;;;;4945410;28;98635;-86
2023/10/09 01:28:57;;;;;;;16.90;8.95;;;;;;;;;;4962818;28;98825;-87
2023/10/09 01:31:26;;;;;;;16.73;8.23;;;;;;;;;;4959260;28;102209;-86
2023/10/09 01:33:59;;;;;;;16.50;8.48;;;;;;;;;;4955130;28;98653;-85
2023/10/09 01:36:32;;;;;;;13.07;6.55;;;;;;;;;;4944056;28;99711;-87
2023/10/09 01:38:59;;;;;;;13.32;6.25;;;;;;;;;;4960713;28;98584;-86
2023/10/09 01:41:26;;;;;;;14.65;7.68;;;;;;;;;;4952072;28;102104;-87
2023/10/09 01:44:00;;;;;;;12.43;5.65;;;;;;;;;;4948564;28;98618;-86
2023/10/09 01:46:28;;;;;;;13.48;6.95;;;;;;;;;;4958939;28;98725;-88
2023/10/09 01:48:54;;;;;;;13.38;6.47;;;;;;;;;;4963028;28;99487;-87
2023/10/09 01:51:21;;;;;;;12.73;6.07;;;;;;;;;;4953720;28;102630;-89
2023/10/09 01:53:54;;;;;;;13.35;7.00;;;;;;;;;;4962587;28;98453;-88
2023/10/09 01:56:23;;;;;;;14.52;6.82;;;;;;;;;;4940589;28;103639;-89
2023/10/09 01:58:50;;;;;;;13.65;7.05;;;;;;;;;;4942342;28;98919;-89
2023/10/09 02:01:17;;;;;;;14.40;7.20;;;;;;;;;;4954494;28;99635;-89
2023/10/09 02:03:44;;;;;;;15.50;7.65;;;;;;;;;;4946959;28;99087;-89
2023/10/09 02:06:28;;;;;;;12.80;6.80;;;;;;;;;;4954135;28;98888;-89
2023/10/09 02:08:56;;;;;;;13.75;7.40;;;;;;;;;;4955658;28;100600;-89
2023/10/09 02:11:41;;;;;;;12.90;6.97;;;;;;;;;;4956653;28;99105;-89
2023/10/09 02:14:29;;;;;;;12.85;6.68;;;;;;;;;;4966531;28;99576;-89
2023/10/09 02:19:52;;;;;;;12.50;6.25;;;;;;;;;;4945711;28;98851;-89
2023/10/09 02:22:19;;;;;;;12.55;5.78;;;;;;;;;;4947840;28;103387;-88
2023/10/09 02:30:08;;;;;;;11.80;6.28;;;;;;;;;;4952386;28;98810;-87
2023/10/09 02:32:35;;;;;;;11.98;5.80;;;;;;;;;;4971735;28;98735;-89
2023/10/09 02:35:19;;;;;;;15.70;8.05;;;;;;;;;;4968810;28;98547;-87
2023/10/09 02:37:46;;;;;;;12.73;6.18;;;;;;;;;;4946072;28;101428;-88
2023/10/09 02:40:24;;;;;;;13.40;5.50;;;;;;;;;;4953131;28;99395;-88
2023/10/09 02:42:51;;;;;;;10.15;5.20;;;;;;;;;;4961860;28;99600;-88
2023/10/09 02:45:18;;;;;;;12.60;5.95;;;;;;;;;;4964003;28;99149;-88
2023/10/09 02:47:48;;;;;;;12.02;5.72;;;;;;;;;;4974379;28;98735;-88
2023/10/09 02:50:21;;;;;;;12.00;5.50;;;;;;;;;;4959200;28;98990;-88
2023/10/09 02:52:59;;;;;;;11.70;5.45;;;;;;;;;;4953715;28;98571;-87
2023/10/09 02:55:27;;;;;;;10.40;5.15;;;;;;;;;;4950289;28;99002;-88
2023/10/09 02:58:07;;;;;;;11.68;5.53;;;;;;;;;;4951626;28;97782;-87
2023/10/09 03:00:36;;;;;;;13.15;5.78;;;;;;;;;;4939875;28;101290;-88
2023/10/09 03:03:06;;;;;;;10.57;5.22;;;;;;;;;;4943146;28;98520;-89
2023/10/09 03:05:33;;;;;;;12.27;5.28;;;;;;;;;;4937344;28;100081;-89
2023/10/09 03:07:59;;;;;;;12.90;6.30;;;;;;;;;;4955218;28;99087;-88
2023/10/09 03:10:26;;;;;;;14.07;5.50;;;;;;;;;;4965414;28;100648;-89
2023/10/09 03:12:55;;;;;;;12.60;5.57;;;;;;;;;;4960043;28;98543;-89
2023/10/09 03:15:22;;;;;;;11.65;4.95;;;;;;;;;;4956106;28;98475;-89
2023/10/09 03:17:49;;;;;;;10.45;5.38;;;;;;;;;;4971998;28;98657;-87
2023/10/09 03:20:17;;;;;;;11.38;5.72;;;;;;;;;;4955198;28;100222;-87
2023/10/09 03:22:45;;;;;;;10.25;4.72;;;;;;;;;;4971974;28;98273;-87
2023/10/09 03:25:14;;;;;;;11.93;5.72;;;;;;;;;;4957125;28;99219;-87
2023/10/09 03:27:44;;;;;;;9.13;4.40;;;;;;;;;;4958926;28;98553;-87
2023/10/09 03:30:22;;;;;;;13.82;5.30;;;;;;;;;;4954885;28;99400;-88
2023/10/09 03:32:51;;;;;;;9.85;5.00;;;;;;;;;;4944373;28;99503;-82
2023/10/09 03:35:24;;;;;;;12.30;5.28;;;;;;;;;;4956657;28;98607;-88
2023/10/09 03:38:00;;;;;;;11.52;4.50;;;;;;;;;;4937861;28;98786;-88
2023/10/09 03:40:27;;;;;;;11.38;4.50;;;;;;;;;;4923491;28;102431;-89
2023/10/09 03:42:54;;;;;;;10.05;4.50;;;;;;;;;;4950636;28;98530;-88
2023/10/09 03:45:31;;;;;;;10.48;4.30;;;;;;;;;;4960042;28;101966;-89
2023/10/09 03:48:04;;;;;;;12.18;6.30;;;;;;;;;;4950519;28;97731;-88
2023/10/09 03:50:35;;;;;;;10.68;4.30;;;;;;;;;;4963275;28;98444;-89
2023/10/09 03:53:08;;;;;;;11.07;4.30;;;;;;;;;;4970540;28;99140;-89
2023/10/09 03:55:37;;;;;;;9.43;4.30;;;;;;;;;;4982651;28;98422;-88
2023/10/09 03:58:06;;;;;;;10.68;4.47;;;;;;;;;;4992784;28;98919;-87
2023/10/09 04:00:40;;;;;;;9.75;4.25;;;;;;;;;;4979438;28;100739;-88
2023/10/09 04:03:07;;;;;;;9.50;4.57;;;;;;;;;;4942682;28;98564;-88
2023/10/09 04:05:34;;;;;;;8.90;4.07;;;;;;;;;;4931904;28;98761;-88
2023/10/09 04:08:01;;;;;;;12.20;6.43;;;;;;;;;;4969551;28;98451;-88
2023/10/09 04:10:44;;;;;;;12.02;4.57;;;;;;;;;;4949269;28;98991;-87
2023/10/09 04:13:16;;;;;;;9.82;4.50;;;;;;;;;;4920139;28;99712;-85
2023/10/09 04:15:43;;;;;;;11.10;5.43;;;;;;;;;;4933072;28;98598;-88
2023/10/09 04:18:16;;;;;;;12.27;5.78;;;;;;;;;;4965712;28;98725;-87
2023/10/09 04:20:47;;;;;;;14.85;6.45;;;;;;;;;;4962770;28;100051;-88
2023/10/09 04:23:16;;;;;;;10.68;4.25;;;;;;;;;;4973776;28;99086;-87
2023/10/09 04:25:45;;;;;;;10.45;5.00;;;;;;;;;;4966291;28;98911;-87
2023/10/09 04:28:18;;;;;;;13.13;6.10;;;;;;;;;;4941955;28;99290;-87
2023/10/09 04:30:46;;;;;;;9.38;4.40;;;;;;;;;;4960017;28;99833;-88
2023/10/09 04:33:42;;;;;;;10.93;4.85;;;;;;;;;;4964829;28;99248;-88
2023/10/09 04:36:21;;;;;;;10.50;4.88;;;;;;;;;;4956448;28;98552;-88
2023/10/09 04:44:19;;;;;;;13.95;5.07;;;;;;;;;;4975557;28;98547;-88
2023/10/09 04:50:58;;;;;;;11.73;4.97;;;;;;;;;;4957730;28;99203;-88
2023/10/09 04:57:45;;;;;;;11.00;4.50;;;;;;;;;;4973522;28;99068;-85
2023/10/09 05:00:22;;;;;;;13.48;5.63;;;;;;;;;;4947067;28;99370;-87
2023/10/09 05:02:56;;;;;;;13.07;5.30;;;;;;;;;;4944268;28;98443;-86
2023/10/09 05:08:28;;;;;;;10.38;4.38;;;;;;;;;;4945411;28;99135;-86
2023/10/09 05:19:28;;;;;;;12.77;5.80;;;;;;;;;;4968021;28;98710;-85
2023/10/09 05:21:44;;;;;;;10.90;5.82;;;;;;;;;;4959482;28;101320;-85
2023/10/09 05:37:34;;;;;;;10.90;4.63;;;;;;;;;;4969896;28;98523;-88
2023/10/09 05:42:44;;;;;;;11.27;3.83;;;;;;;;;;4976913;28;99370;-88
2023/10/09 05:50:34;;;;;;;10.85;4.00;;;;;;;;;;4956217;28;101902;-87
2023/10/09 06:02:16;;;;;;;11.18;4.90;;;;;;;;;;4953157;28;99266;-87
2023/10/09 06:03:55;;;;;;;8.75;4.13;;;;;;;;;;4958997;28;98630;-80
2023/10/09 06:06:44;;;;;;;12.90;4.50;;;;;;;;;;4963334;28;100867;-85
2023/10/09 06:19:48;;;;;;;9.00;3.47;;;;;;;;;;4950667;28;100250;-85
2023/10/09 06:22:56;;;;;;;9.57;3.72;;;;;;;;;;4949654;28;98739;-86
2023/10/09 06:25:17;;;;;;;8.57;3.28;;;;;;;;;;4951563;28;97902;-85
2023/10/09 06:27:57;;;;;;;7.38;3.50;;;;;;;;;;4954270;28;99383;-84
2023/10/09 06:30:24;;;;;;;7.50;3.20;;;;;;;;;;4934359;28;98586;-85
2023/10/09 06:32:57;;;;;;;8.68;3.22;;;;;;;;;;4963277;28;101132;-86
2023/10/09 06:35:31;;;;;;;;;;;;;;;;;;4960477;28;99281;-83
2023/10/09 06:43:09;;;;;;;9.63;3.33;;;;;;;;;;4953157;28;98933;-83
2023/10/09 06:45:45;;;;;;;7.70;3.38;;;;;;;;;;4959001;28;99256;-83
2023/10/09 06:51:34;;;;;;;6.75;3.17;;;;;;;;;;4963130;28;97987;-83
2023/10/09 06:54:04;;;;;;;7.53;3.28;;;;;;;;;;4917424;28;99218;-83
2023/10/09 06:58:58;;;;;;;6.53;2.97;;;;;;;;;;4946986;28;99501;-83
2023/10/09 07:01:43;;;;;;;8.65;3.33;;;;;;;;;;4955426;28;99857;-83
2023/10/09 07:04:45;;;;;;;7.47;3.63;;;;;;;;;;4940075;28;99563;-83
2023/10/09 07:07:16;;;;;;;10.18;3.30;;;;;;;;;;4962450;28;98540;-83
2023/10/09 07:09:43;;;;;;;7.93;3.50;;;;;;;;;;4963974;28;100038;-83
2023/10/09 07:12:14;;;;;;;8.60;3.30;;;;;;;;;;4965976;28;99561;-83
2023/10/09 07:17:21;;;;;;;7.25;3.20;;;;;;;;;;4956117;28;98379;-83
2023/10/09 07:24:49;;;;;;;7.18;3.17;;;;;;;;;;4965554;28;99820;-83
2023/10/09 07:27:17;;;;;;;7.22;3.28;;;;;;;;;;4977177;28;99240;-83
2023/10/09 07:29:50;;;;;;;6.60;2.97;;;;;;;;;;4967345;28;98789;-84
2023/10/09 07:32:22;;;;;;;7.53;3.20;;;;;;;;;;4965800;28;104095;-83
2023/10/09 07:34:52;;;;;;;7.07;2.88;;;;;;;;;;4956600;28;98557;-83
2023/10/09 07:37:22;;;;;;;8.63;3.00;;;;;;;;;;4954210;28;98582;-83
2023/10/09 07:39:56;;;;;;;6.90;3.10;;;;;;;;;;4953832;28;99306;-83
2023/10/09 07:43:16;;;;;;;8.40;3.33;;;;;;;;;;4966410;28;103380;-84
2023/10/09 07:48:01;;;;;;;8.35;3.58;;;;;;;;;;4969865;28;98673;-84
2023/10/09 07:51:05;;;;;;;8.68;3.10;;;;;;;;;;4951446;28;106141;-84
2023/10/09 07:53:26;;;;;;;7.63;3.20;;;;;;;;;;4956267;28;99176;-83
2023/10/09 07:56:06;;;;;;;7.75;3.00;;;;;;;;;;4963151;28;98525;-83
2023/10/09 07:58:45;;;;;;;;;;;;;;;;;;4959785;28;98883;-84
2023/10/09 08:01:15;;;;;;;6.68;3.10;;;;;;;;;;4967212;28;98770;-84
2023/10/09 08:03:45;;;;;;;7.10;3.55;;;;;;;;;;4933426;28;99058;-84
2023/10/09 08:12:13;;;;;;;8.18;3.45;;;;;;;;;;4927155;28;98479;-84
2023/10/09 08:14:45;;;;;;;7.30;3.22;;;;;;;;;;4950898;28;103026;-84
2023/10/09 08:17:21;;;;;;;7.10;3.05;;;;;;;;;;4946949;28;99735;-84
2023/10/09 08:19:55;;;;;;;7.07;3.28;;;;;;;;;;4946049;28;99648;-84
2023/10/09 08:24:58;;;;;;;8.23;3.30;;;;;;;;;;4954851;28;98963;-84
2023/10/09 08:27:55;;;;;;;7.63;3.28;;;;;;;;;;4965958;28;99112;-84
2023/10/09 08:35:47;;;;;;;8.85;3.33;;;;;;;;;;4927329;28;98968;-82
2023/10/09 08:38:23;;;;;;;8.40;3.38;;;;;;;;;;4963277;28;99623;-84
2023/10/09 08:40:51;;;;;;;8.25;3.42;;;;;;;;;;4953043;28;100294;-84
2023/10/09 08:43:21;;;;;;;8.95;3.63;;;;;;;;;;4966584;28;99312;-83
2023/10/09 08:46:01;;;;;;;8.32;3.47;;;;;;;;;;4944947;28;98702;-83
2023/10/09 08:48:29;;;;;;;7.93;3.00;;;;;;;;;;4962848;28;106360;-84
2023/10/09 08:50:55;;;;;;;8.98;3.10;;;;;;;;;;4965191;28;98904;-83
2023/10/09 08:53:30;;;;;;;9.07;3.63;;;;;;;;;;4956812;28;102457;-83
2023/10/09 08:55:57;;;;;;;7.63;3.33;;;;;;;;;;4946463;28;99330;-83
2023/10/09 08:58:37;;;;;;;8.35;3.38;;;;;;;;;;4962049;28;98593;-83
2023/10/09 09:01:04;;;;;;;7.68;3.22;;;;;;;;;;4947296;28;98847;-83
2023/10/09 09:03:43;;;;;;;8.68;3.38;;;;;;;;;;4945325;28;99507;-83
2023/10/09 09:06:11;;;;;;;6.47;3.10;;;;;;;;;;4964578;28;98621;-83
2023/10/09 09:08:44;;;;;;;7.32;3.40;;;;;;;;;;4953965;28;99293;-83
2023/10/09 09:11:22;;;;;;;7.45;3.17;;;;;;;;;;4951891;28;98941;-83
2023/10/09 09:13:58;;;;;;;8.38;3.70;;;;;;;;;;4947609;28;98758;-83
2023/10/09 09:16:31;;;;;;;7.68;3.30;;;;;;;;;;4944835;28;104019;-84
2023/10/09 09:19:11;;;;;;;7.97;3.30;;;;;;;;;;4954913;28;98815;-83
2023/10/09 09:21:47;;;;;;;7.88;3.15;;;;;;;;;;4959260;28;98811;-83
2023/10/09 09:24:16;;;;;;;9.00;3.30;;;;;;;;;;4960250;28;99554;-84
2023/10/09 09:26:46;;;;;;;6.85;2.97;;;;;;;;;;4963675;28;97951;-83
2023/10/09 09:29:13;;;;;;;7.35;3.22;;;;;;;;;;4936136;28;98907;-83
2023/10/09 09:31:54;;;;;;;6.80;3.17;;;;;;;;;;4926108;28;98580;-84
2023/10/09 09:34:28;;;;;;;8.07;3.42;;;;;;;;;;4931305;28;101788;-82
2023/10/09 09:36:57;;;;;;;6.90;2.85;;;;;;;;;;4949627;28;99128;-83
2023/10/09 09:39:30;;;;;;;7.30;3.20;;;;;;;;;;4957251;28;98648;-83
2023/10/09 09:42:13;;;;;;;7.50;3.10;;;;;;;;;;4931324;28;98840;-84
2023/10/09 09:44:45;;;;;;;7.80;3.10;;;;;;;;;;4942301;28;100729;-83
2023/10/09 09:47:27;;;;;;;7.97;3.58;;;;;;;;;;4931245;28;98530;-83
2023/10/09 09:50:01;;;;;;;8.13;3.47;;;;;;;;;;4960387;28;98679;-82
2023/10/09 09:52:28;;;;;;;;;;;;;;;;;;4961180;28;98780;-83
2023/10/09 09:54:54;;;;;;;6.88;2.80;;;;;;;;;;4944070;28;103315;-83
2023/10/09 09:57:26;;;;;;;7.13;3.10;;;;;;;;;;4945003;28;100604;-83
2023/10/09 09:59:55;;;;;;;8.57;3.35;;;;;;;;;;4954572;28;99274;-82
2023/10/09 10:02:28;;;;;;;7.10;3.33;;;;;;;;;;4957130;28;99719;-83
2023/10/09 10:04:57;;;;;;;8.95;3.72;;;;;;;;;;4945046;28;99546;-83
2023/10/09 10:07:26;;;;;;;7.68;3.40;;;;;;;;;;4953037;28;99860;-83
2023/10/09 10:09:54;;;;;;;7.57;3.30;;;;;;;;;;4956088;28;98894;-82
2023/10/09 10:12:46;;;;;;;7.75;3.30;;;;;;;;;;4946606;28;101740;-83
2023/10/09 10:15:15;;;;;;;8.55;3.35;;;;;;;;;;4945405;28;98552;-83
2023/10/09 10:17:58;;;;;;;7.93;3.15;;;;;;;;;;4974963;28;101415;-85
2023/10/09 10:20:26;;;;;;;7.57;3.30;;;;;;;;;;4961943;28;98508;-85
2023/10/09 10:23:12;;;;;;;8.43;3.28;;;;;;;;;;4954461;28;100170;-83
2023/10/09 10:25:41;;;;;;;7.88;3.17;;;;;;;;;;4954944;28;100744;-83
2023/10/09 10:29:05;;;;;;;8.07;3.30;;;;;;;;;;4963121;28;98805;-83
2023/10/09 10:31:09;;;;;;;8.10;3.08;;;;;;;;;;4946556;28;99129;-83
2023/10/09 10:33:58;;;;;;;7.80;3.00;;;;;;;;;;4943495;28;99431;-83
2023/10/09 10:36:28;;;;;;;7.57;3.60;;;;;;;;;;4952770;28;98511;-83
2023/10/09 10:39:09;;;;;;;7.63;3.20;;;;;;;;;;4947041;28;98778;-84
2023/10/09 10:41:48;;;;;;;7.43;3.20;;;;;;;;;;4958364;28;98585;-84
2023/10/09 10:47:00;;;;;;;7.68;3.33;;;;;;;;;;4953140;28;99113;-83
2023/10/09 10:49:36;;;;;;;7.78;3.40;;;;;;;;;;4963519;28;99103;-83
2023/10/09 10:52:18;;;;;;;8.10;3.10;;;;;;;;;;4950536;28;99664;-84
2023/10/09 10:57:28;;;;;;;8.30;3.20;;;;;;;;;;4963517;28;98543;-83
2023/10/09 11:00:13;;;;;;;7.63;3.30;;;;;;;;;;4958428;28;98919;-83
2023/10/09 11:02:43;;;;;;;7.40;3.00;;;;;;;;;;4957273;28;99017;-83
2023/10/09 11:05:24;;;;;;;7.75;3.35;;;;;;;;;;4943289;28;100925;-83
2023/10/09 11:07:57;;;;;;;7.28;3.28;;;;;;;;;;4943254;28;99093;-83
2023/10/09 11:10:31;;;;;;;8.38;3.42;;;;;;;;;;4956704;28;97859;-83
2023/10/09 11:15:44;;;;;;;7.47;3.08;;;;;;;;;;4946055;28;99380;-84
2023/10/09 11:18:24;;;;;;;7.93;3.15;;;;;;;;;;4965106;28;99350;-83
2023/10/09 11:29:23;;;;;;;7.18;3.00;;;;;;;;;;4961634;28;99665;-84
2023/10/09 11:32:22;;;;;;;8.88;3.30;;;;;;;;;;4966544;28;98558;-84
2023/10/09 11:34:53;;;;;;;7.28;3.47;;;;;;;;;;4966349;28;103439;-84
2023/10/09 11:39:58;;;;;;;7.72;3.22;;;;;;;;;;4947450;28;99105;-83
2023/10/09 11:45:20;;;;;;;7.85;3.38;;;;;;;;;;4952136;28;101536;-84
2023/10/09 11:48:05;;;;;;;9.15;3.45;;;;;;;;;;4959399;28;98873;-84
2023/10/09 11:50:51;;;;;;;7.72;3.08;;;;;;;;;;4951845;28;103734;-84
2023/10/09 11:55:52;;;;;;;7.28;3.38;;;;;;;;;;4948016;28;102305;-84
2023/10/09 11:58:23;;;;;;;8.10;3.40;;;;;;;;;;4919785;28;104351;-84
2023/10/09 12:00:59;;;;;;;7.57;3.67;;;;;;;;;;4943350;28;98689;-83
2023/10/09 12:03:29;;;;;;;7.35;3.42;;;;;;;;;;4943556;28;101313;-84
2023/10/09 12:05:57;;;;;;;7.65;3.22;;;;;;;;;;4961665;28;105732;-84
2023/10/09 12:08:26;;;;;;;7.88;3.25;;;;;;;;;;4964870;28;99997;-84
2023/10/09 12:10:54;;;;;;;8.90;3.38;;;;;;;;;;4956747;28;99619;-83
2023/10/09 12:13:23;;;;;;;7.63;3.10;;;;;;;;;;4953132;28;98774;-84
2023/10/09 12:15:53;;;;;;;7.20;3.20;;;;;;;;;;4945085;28;99168;-84
2023/10/09 12:18:20;;;;;;;8.77;3.20;;;;;;;;;;4948123;28;104055;-84
2023/10/09 12:20:56;;;;;;;7.63;3.20;;;;;;;;;;4960560;28;100084;-84
2023/10/09 12:23:22;;;;;;;7.85;3.45;;;;;;;;;;4936384;28;98956;-84
2023/10/09 12:25:49;;;;;;;7.63;3.20;;;;;;;;;;4960482;28;99367;-83
2023/10/09 12:28:20;;;;;;;6.88;3.00;;;;;;;;;;4962030;28;98848;-83
2023/10/09 12:30:50;;;;;;;7.55;3.05;;;;;;;;;;4945291;28;98490;-84
2023/10/09 12:33:18;;;;;;;7.70;2.80;;;;;;;;;;4960226;28;99261;-83
2023/10/09 12:35:47;;;;;;;7.47;3.20;;;;;;;;;;4958937;28;99289;-83
2023/10/09 12:38:18;;;;;;;8.18;3.10;;;;;;;;;;4947096;28;98570;-83
2023/10/09 12:40:51;;;;;;;8.27;3.03;;;;;;;;;;4955817;28;98727;-83
2023/10/09 12:43:19;;;;;;;7.93;2.88;;;;;;;;;;4954920;28;98879;-83
2023/10/09 12:45:46;;;;;;;8.30;3.17;;;;;;;;;;4934913;28;99843;-83
2023/10/09 12:48:14;;;;;;;6.65;3.25;;;;;;;;;;4947699;28;98648;-82
2023/10/09 12:50:47;;;;;;;7.72;3.38;;;;;;;;;;4960508;28;99588;-85
2023/10/09 12:53:17;;;;;;;6.95;2.90;;;;;;;;;;4951145;28;97777;-83
2023/10/09 12:55:44;;;;;;;8.85;3.10;;;;;;;;;;4958558;28;98908;-83
2023/10/09 12:58:15;;;;;;;7.95;3.22;;;;;;;;;;4941345;28;99502;-83
2023/10/09 13:00:49;;;;;;;8.27;3.35;;;;;;;;;;4940495;28;99566;-84
2023/10/09 13:03:16;;;;;;;7.65;3.10;;;;;;;;;;4944980;28;99593;-84
2023/10/09 13:05:51;;;;;;;6.87;2.90;;;;;;;;;;4919576;28;1156587;-84
2023/10/09 13:08:21;;;;;;;7.38;3.17;;;;;;;;;;4965001;28;99037;-84
2023/10/09 13:10:55;;;;;;;7.60;3.40;;;;;;;;;;4954943;28;98899;-83
2023/10/09 13:13:22;;;;;;;7.05;2.80;;;;;;;;;;4946678;28;100113;-83
2023/10/09 13:15:48;;;;;;;7.35;3.40;;;;;;;;;;4954974;28;98773;-83
2023/10/09 13:18:15;;;;;;;7.97;3.30;;;;;;;;;;4974364;28;100177;-83
2023/10/09 13:20:41;;;;;;;7.10;2.97;;;;;;;;;;4971644;28;98549;-83
2023/10/09 13:23:08;;;;;;;8.23;2.60;;;;;;;;;;4964250;28;99210;-84
2023/10/09 13:25:39;;;;;;;6.90;3.00;;;;;;;;;;4962533;28;99775;-83
2023/10/09 13:28:07;;;;;;;7.60;2.85;;;;;;;;;;4947716;28;99331;-86
2023/10/09 13:30:39;;;;;;;6.95;2.95;;;;;;;;;;4956446;28;98935;-86
2023/10/09 13:33:07;;;;;;;6.97;3.10;;;;;;;;;;4964200;28;99254;-84
2023/10/09 13:35:38;;;;;;;7.53;2.85;;;;;;;;;;4961193;28;98836;-84
2023/10/09 13:38:09;;;;;;;6.68;2.70;;;;;;;;;;4948395;28;99105;-83
2023/10/09 13:40:37;;;;;;;9.80;3.00;;;;;;;;;;4954611;28;98891;-84
2023/10/09 13:43:05;;;;;;;7.22;2.97;;;;;;;;;;4955503;28;99477;-84
2023/10/09 13:45:37;;;;;;;8.35;3.30;;;;;;;;;;4947796;28;107242;-84
2023/10/09 13:48:04;;;;;;;6.90;3.00;;;;;;;;;;4953616;28;98527;-84
2023/10/09 13:50:34;;;;;;;6.85;3.20;;;;;;;;;;4930369;28;99558;-84
2023/10/09 13:53:07;;;;;;;6.75;3.30;;;;;;;;;;4942668;28;105664;-84
2023/10/09 13:55:43;;;;;;;7.13;3.30;;;;;;;;;;4945081;28;98599;-84
2023/10/09 13:58:14;;;;;;;8.00;3.10;;;;;;;;;;4944909;28;101202;-84
2023/10/09 14:00:46;;;;;;;6.80;2.70;;;;;;;;;;4962947;28;99052;-83
2023/10/09 14:03:13;;;;;;;7.07;2.90;;;;;;;;;;4950969;28;99219;-83
2023/10/09 14:05:54;;;;;;;6.15;2.70;;;;;;;;;;4958791;28;100527;-83
2023/10/09 14:08:25;;;;;;;6.85;3.30;;;;;;;;;;4957387;28;97900;-82
2023/10/09 14:10:52;;;;;;;7.97;3.28;;;;;;;;;;4945643;28;100613;-83
2023/10/09 14:13:25;;;;;;;8.02;3.22;;;;;;;;;;4952923;28;99161;-83
2023/10/09 14:15:54;;;;;;;;;;;;;;;;;;4944319;28;99349;-82
2023/10/09 14:18:21;;;;;;;7.90;3.05;;;;;;;;;;4963234;28;99090;-85
2023/10/09 14:20:49;;;;;;;7.88;3.13;;;;;;;;;;4950861;28;99036;-83
2023/10/09 14:23:20;;;;;;;8.82;3.22;;;;;;;;;;4939601;28;99148;-83
2023/10/09 14:25:49;;;;;;;8.98;3.50;;;;;;;;;;4956999;28;99078;-84
2023/10/09 14:28:19;;;;;;;10.32;4.43;;;;;;;;;;4950206;28;98859;-83
2023/10/09 14:30:50;;;;;;;13.02;4.60;;;;;;;;;;4943979;28;98784;-83
2023/10/09 14:33:22;;;;;;;13.50;4.47;;;;;;;;;;4955946;28;99426;-83
2023/10/09 14:35:52;;;;;;;10.07;3.97;;;;;;;;;;4944875;28;99245;-83
2023/10/09 14:38:21;;;;;;;14.45;4.97;;;;;;;;;;4947917;28;103792;-83
2023/10/09 14:40:48;;;;;;;14.85;5.03;;;;;;;;;;4953069;28;100031;-84
2023/10/09 14:43:22;;;;;;;13.80;4.93;;;;;;;;;;4951360;28;99170;-83
2023/10/09 14:45:48;;;;;;;10.80;4.18;;;;;;;;;;4942101;28;100221;-83
2023/10/09 14:48:18;;;;;;;13.65;5.00;;;;;;;;;;4944912;28;99357;-83
2023/10/09 14:50:48;;;;;;;12.27;4.95;;;;;;;;;;4938530;28;98881;-83
2023/10/09 14:53:19;;;;;;;14.45;5.18;;;;;;;;;;4939376;28;99679;-83
2023/10/09 14:55:47;;;;;;;12.75;5.10;;;;;;;;;;4942930;28;99284;-83
2023/10/09 14:58:15;;;;;;;14.10;5.00;;;;;;;;;;4951605;28;98935;-83
2023/10/09 15:00:46;;;;;;;14.25;5.10;;;;;;;;;;4945051;28;100732;-79
2023/10/09 15:03:14;;;;;;;11.32;4.30;;;;;;;;;;4957256;28;98560;-81
2023/10/09 15:05:42;;;;;;;8.82;3.75;;;;;;;;;;4929418;28;100018;-83
2023/10/09 15:08:11;;;;;;;;;;;;;;;;;;4928881;28;99248;-84
2023/10/09 15:10:45;;;;;;;12.48;3.70;;;;;;;;;;4918990;28;110969;-83
2023/10/09 15:13:13;;;;;;;12.25;3.80;;;;;;;;;;4946717;28;99804;-83
2023/10/09 15:15:40;;;;;;;11.52;3.92;;;;;;;;;;4966387;28;98552;-85
2023/10/09 15:18:07;;;;;;;9.82;3.70;;;;;;;;;;4970202;28;99363;-83
2023/10/09 15:20:35;;;;;;;11.43;3.33;;;;;;;;;;4953577;28;99013;-85
2023/10/09 15:23:01;;;;;;;9.45;3.70;;;;;;;;;;4956558;28;97844;-82
2023/10/09 15:25:28;;;;;;;12.27;4.00;;;;;;;;;;4976949;28;98520;-82
2023/10/09 15:27:54;;;;;;;9.07;3.55;;;;;;;;;;4978974;28;98676;-83
2023/10/09 15:30:21;;;;;;;10.23;3.80;;;;;;;;;;4972563;28;99167;-85
2023/10/09 15:32:49;;;;;;;9.77;3.75;;;;;;;;;;4965889;28;100739;-85
2023/10/09 15:35:15;;;;;;;11.25;3.75;;;;;;;;;;4976875;28;99195;-80
2023/10/09 15:37:43;;;;;;;8.25;3.55;;;;;;;;;;4965249;28;101788;-84
2023/10/09 15:40:18;;;;;;;11.73;4.72;;;;;;;;;;4960774;28;101095;-84
2023/10/09 15:42:49;;;;;;;8.25;4.07;;;;;;;;;;4945751;28;98752;-85
2023/10/09 15:45:17;;;;;;;8.95;4.10;;;;;;;;;;4952109;28;101361;-83
2023/10/09 15:47:44;;;;;;;11.68;4.72;;;;;;;;;;4957165;28;98676;-83
2023/10/09 15:50:14;;;;;;;17.42;6.63;;;;;;;;;;4940986;28;98969;-83
2023/10/09 15:52:41;;;;;;;20.92;6.72;;;;;;;;;;4949241;28;99710;-84
2023/10/09 15:55:13;;;;;;;17.65;6.68;;;;;;;;;;4953125;28;99722;-84
2023/10/09 15:57:41;;;;;;;15.88;6.15;;;;;;;;;;4944705;28;101508;-84
2023/10/09 16:00:13;;;;;;;15.80;6.07;;;;;;;;;;4952288;28;102031;-83
2023/10/09 16:02:41;;;;;;;15.68;5.75;;;;;;;;;;4941135;28;99157;-83
2023/10/09 16:05:11;;;;;;;16.48;5.88;;;;;;;;;;4960913;28;98842;-83
2023/10/09 16:07:39;;;;;;;13.52;4.90;;;;;;;;;;4960358;28;99238;-85
2023/10/09 16:10:08;;;;;;;16.23;5.38;;;;;;;;;;4960661;28;98906;-84
2023/10/09 16:12:38;;;;;;;15.50;5.78;;;;;;;;;;4954038;28;98899;-84
2023/10/09 16:15:05;;;;;;;14.32;5.25;;;;;;;;;;4945312;28;98652;-85
2023/10/09 16:17:32;;;;;;;12.55;5.07;;;;;;;;;;4960082;28;104188;-85
2023/10/09 16:19:59;;;;;;;11.82;4.90;;;;;;;;;;4950841;28;99759;-86
2023/10/09 16:22:28;;;;;;;10.55;4.80;;;;;;;;;;4955977;28;99116;-85
2023/10/09 16:24:55;;;;;;;12.95;4.78;;;;;;;;;;4962332;28;98939;-84
2023/10/09 16:27:23;;;;;;;12.40;4.80;;;;;;;;;;4957965;28;99307;-83
2023/10/09 16:29:50;;;;;;;13.13;4.88;;;;;;;;;;4943680;28;99037;-86
2023/10/09 16:32:21;;;;;;;11.73;4.65;;;;;;;;;;4944230;28;104142;-85
2023/10/09 16:34:50;;;;;;;12.85;5.05;;;;;;;;;;4956477;28;99068;-84
2023/10/09 16:37:22;;;;;;;13.77;4.82;;;;;;;;;;4945249;28;98796;-84
2023/10/09 16:39:53;;;;;;;11.32;5.32;;;;;;;;;;4946122;28;99199;-84
2023/10/09 16:42:24;;;;;;;11.90;4.60;;;;;;;;;;4949249;28;98589;-84
2023/10/09 16:44:50;;;;;;;11.07;5.00;;;;;;;;;;4952684;28;99248;-84
2023/10/09 16:47:17;;;;;;;13.30;5.00;;;;;;;;;;4956162;28;99383;-84
2023/10/09 16:49:48;;;;;;;11.05;4.82;;;;;;;;;;4952666;28;98778;-85
2023/10/09 16:52:15;;;;;;;14.05;5.15;;;;;;;;;;4965213;28;99100;-84
2023/10/09 16:54:43;;;;;;;11.93;5.13;;;;;;;;;;4956365;28;99115;-84
2023/10/09 16:57:10;;;;;;;12.40;4.82;;;;;;;;;;4960657;28;98688;-86
2023/10/09 16:59:37;;;;;;;11.38;5.18;;;;;;;;;;4938166;28;99131;-88
2023/10/09 17:02:07;;;;;;;11.60;5.43;;;;;;;;;;4939995;28;97846;-85
2023/10/09 17:04:34;;;;;;;12.80;4.53;;;;;;;;;;4950779;28;98972;-86
2023/10/09 17:07:04;;;;;;;11.75;4.55;;;;;;;;;;4964244;28;99929;-85
2023/10/09 17:09:34;;;;;;;12.50;4.60;;;;;;;;;;4964637;28;99582;-83
2023/10/09 17:12:03;;;;;;;12.27;4.78;;;;;;;;;;4928109;28;100152;-84
2023/10/09 17:14:34;;;;;;;13.48;4.75;;;;;;;;;;4926336;28;99221;-84
2023/10/09 17:17:00;;;;;;;11.38;4.22;;;;;;;;;;4936707;28;98631;-85
2023/10/09 17:19:27;;;;;;;10.90;4.32;;;;;;;;;;4963264;28;98951;-87
2023/10/09 17:21:56;;;;;;;13.15;4.45;;;;;;;;;;4956518;28;98546;-86